METAR Data
IDs: Format: Raw Decoded Include TAF

Data at: 0234 UTC 20 Jan 2022

EDQM 200220Z AUTO 25011KT 4700 // SCT004/// BKN005/// BKN015/// 00/M00 Q1017